sensor_id;sensor_type;location;lat;lon;timestamp;P1;durP1;ratioP1;P2;durP2;ratioP2
54881;SDS011;40775;51.448;4.742;2022-12-18T00:01:27;46.53;;;22.73;;
54881;SDS011;40775;51.448;4.742;2022-12-18T00:04:01;42.65;;;21.92;;
54881;SDS011;40775;51.448;4.742;2022-12-18T00:06:31;40.60;;;20.10;;
54881;SDS011;40775;51.448;4.742;2022-12-18T00:08:59;44.38;;;23.02;;
54881;SDS011;40775;51.448;4.742;2022-12-18T00:11:29;40.20;;;21.33;;
54881;SDS011;40775;51.448;4.742;2022-12-18T00:13:57;42.42;;;21.75;;
54881;SDS011;40775;51.448;4.742;2022-12-18T00:16:26;38.42;;;21.65;;
54881;SDS011;40775;51.448;4.742;2022-12-18T00:18:55;38.90;;;21.07;;
54881;SDS011;40775;51.448;4.742;2022-12-18T00:21:23;41.37;;;22.70;;
54881;SDS011;40775;51.448;4.742;2022-12-18T00:23:51;42.53;;;21.88;;
54881;SDS011;40775;51.448;4.742;2022-12-18T00:26:20;38.30;;;20.90;;
54881;SDS011;40775;51.448;4.742;2022-12-18T00:28:50;39.35;;;20.98;;
54881;SDS011;40775;51.448;4.742;2022-12-18T00:31:19;38.97;;;21.23;;
54881;SDS011;40775;51.448;4.742;2022-12-18T00:33:50;37.03;;;20.13;;
54881;SDS011;40775;51.448;4.742;2022-12-18T00:36:21;35.80;;;20.00;;
54881;SDS011;40775;51.448;4.742;2022-12-18T00:38:55;35.80;;;19.60;;
54881;SDS011;40775;51.448;4.742;2022-12-18T00:41:24;38.00;;;20.90;;
54881;SDS011;40775;51.448;4.742;2022-12-18T00:44:12;34.88;;;20.52;;
54881;SDS011;40775;51.448;4.742;2022-12-18T00:46:41;35.70;;;19.67;;
54881;SDS011;40775;51.448;4.742;2022-12-18T00:49:10;33.55;;;19.33;;
54881;SDS011;40775;51.448;4.742;2022-12-18T00:51:38;36.35;;;19.05;;
54881;SDS011;40775;51.448;4.742;2022-12-18T00:54:05;31.40;;;17.17;;
54881;SDS011;40775;51.448;4.742;2022-12-18T00:56:32;36.83;;;18.27;;
54881;SDS011;40775;51.448;4.742;2022-12-18T00:59:10;34.13;;;19.08;;
54881;SDS011;40775;51.448;4.742;2022-12-18T01:01:38;35.03;;;18.52;;
54881;SDS011;40775;51.448;4.742;2022-12-18T01:04:05;34.10;;;18.60;;
54881;SDS011;40775;51.448;4.742;2022-12-18T01:06:34;32.38;;;17.75;;
54881;SDS011;40775;51.448;4.742;2022-12-18T01:09:02;29.17;;;18.08;;
54881;SDS011;40775;51.448;4.742;2022-12-18T01:11:29;31.40;;;18.27;;
54881;SDS011;40775;51.448;4.742;2022-12-18T01:13:57;28.58;;;16.20;;
54881;SDS011;40775;51.448;4.742;2022-12-18T01:16:25;29.00;;;17.35;;
54881;SDS011;40775;51.448;4.742;2022-12-18T01:18:53;32.73;;;17.47;;
54881;SDS011;40775;51.448;4.742;2022-12-18T01:21:21;28.20;;;17.10;;
54881;SDS011;40775;51.448;4.742;2022-12-18T01:23:51;29.17;;;15.77;;
54881;SDS011;40775;51.448;4.742;2022-12-18T01:26:21;27.97;;;17.30;;
54881;SDS011;40775;51.448;4.742;2022-12-18T01:28:48;29.50;;;16.83;;
54881;SDS011;40775;51.448;4.742;2022-12-18T01:33:50;28.52;;;16.77;;
54881;SDS011;40775;51.448;4.742;2022-12-18T01:36:19;27.70;;;15.90;;
54881;SDS011;40775;51.448;4.742;2022-12-18T01:38:49;29.87;;;16.33;;
54881;SDS011;40775;51.448;4.742;2022-12-18T01:41:17;25.48;;;15.75;;
54881;SDS011;40775;51.448;4.742;2022-12-18T01:47:36;30.63;;;16.77;;
54881;SDS011;40775;51.448;4.742;2022-12-18T01:52:54;28.38;;;16.13;;
54881;SDS011;40775;51.448;4.742;2022-12-18T01:55:30;24.83;;;14.27;;
54881;SDS011;40775;51.448;4.742;2022-12-18T01:58:04;27.20;;;15.77;;
54881;SDS011;40775;51.448;4.742;2022-12-18T02:00:32;29.52;;;17.27;;
54881;SDS011;40775;51.448;4.742;2022-12-18T02:02:59;26.05;;;15.85;;
54881;SDS011;40775;51.448;4.742;2022-12-18T02:08:24;28.57;;;15.90;;
54881;SDS011;40775;51.448;4.742;2022-12-18T02:19:56;25.47;;;15.27;;
54881;SDS011;40775;51.448;4.742;2022-12-18T02:22:53;26.98;;;15.85;;
54881;SDS011;40775;51.448;4.742;2022-12-18T02:28:17;24.60;;;15.17;;
54881;SDS011;40775;51.448;4.742;2022-12-18T02:30:49;28.30;;;14.70;;
54881;SDS011;40775;51.448;4.742;2022-12-18T02:33:20;27.95;;;15.55;;
54881;SDS011;40775;51.448;4.742;2022-12-18T02:35:48;28.65;;;16.10;;
54881;SDS011;40775;51.448;4.742;2022-12-18T02:38:18;35.17;;;17.27;;
54881;SDS011;40775;51.448;4.742;2022-12-18T02:40:46;34.30;;;19.40;;
54881;SDS011;40775;51.448;4.742;2022-12-18T02:43:16;23.98;;;14.13;;
54881;SDS011;40775;51.448;4.742;2022-12-18T02:45:47;17.17;;;9.40;;
54881;SDS011;40775;51.448;4.742;2022-12-18T02:48:31;11.13;;;7.28;;
54881;SDS011;40775;51.448;4.742;2022-12-18T02:54:18;10.40;;;5.75;;
54881;SDS011;40775;51.448;4.742;2022-12-18T02:56:51;10.57;;;5.57;;
54881;SDS011;40775;51.448;4.742;2022-12-18T02:59:47;11.83;;;6.07;;
54881;SDS011;40775;51.448;4.742;2022-12-18T03:03:09;11.27;;;5.82;;
54881;SDS011;40775;51.448;4.742;2022-12-18T03:05:43;10.13;;;5.10;;
54881;SDS011;40775;51.448;4.742;2022-12-18T03:08:24;9.32;;;5.03;;
54881;SDS011;40775;51.448;4.742;2022-12-18T03:10:59;11.32;;;5.45;;
54881;SDS011;40775;51.448;4.742;2022-12-18T03:13:37;10.30;;;5.20;;
54881;SDS011;40775;51.448;4.742;2022-12-18T03:16:21;9.70;;;5.20;;
54881;SDS011;40775;51.448;4.742;2022-12-18T03:21:51;8.38;;;4.32;;
54881;SDS011;40775;51.448;4.742;2022-12-18T03:24:24;11.03;;;5.90;;
54881;SDS011;40775;51.448;4.742;2022-12-18T03:26:57;11.00;;;5.50;;
54881;SDS011;40775;51.448;4.742;2022-12-18T03:29:38;10.30;;;5.23;;
54881;SDS011;40775;51.448;4.742;2022-12-18T03:32:35;9.50;;;5.03;;
54881;SDS011;40775;51.448;4.742;2022-12-18T03:35:35;9.15;;;4.65;;
54881;SDS011;40775;51.448;4.742;2022-12-18T03:38:06;10.55;;;5.32;;
54881;SDS011;40775;51.448;4.742;2022-12-18T03:40:43;9.75;;;4.70;;
54881;SDS011;40775;51.448;4.742;2022-12-18T03:46:30;10.02;;;5.68;;
54881;SDS011;40775;51.448;4.742;2022-12-18T03:49:18;10.32;;;5.13;;
54881;SDS011;40775;51.448;4.742;2022-12-18T03:52:26;8.30;;;4.50;;
54881;SDS011;40775;51.448;4.742;2022-12-18T03:55:02;8.25;;;4.38;;
54881;SDS011;40775;51.448;4.742;2022-12-18T03:57:31;8.20;;;4.90;;
54881;SDS011;40775;51.448;4.742;2022-12-18T04:00:00;9.50;;;4.68;;
54881;SDS011;40775;51.448;4.742;2022-12-18T04:02:39;9.70;;;5.10;;
54881;SDS011;40775;51.448;4.742;2022-12-18T04:05:12;8.48;;;4.55;;
54881;SDS011;40775;51.448;4.742;2022-12-18T04:07:40;8.35;;;4.15;;
54881;SDS011;40775;51.448;4.742;2022-12-18T04:10:09;8.25;;;4.15;;
54881;SDS011;40775;51.448;4.742;2022-12-18T04:12:38;9.63;;;4.68;;
54881;SDS011;40775;51.448;4.742;2022-12-18T04:15:06;8.98;;;4.68;;
54881;SDS011;40775;51.448;4.742;2022-12-18T04:17:34;10.97;;;4.40;;
54881;SDS011;40775;51.448;4.742;2022-12-18T04:20:01;7.60;;;4.50;;
54881;SDS011;40775;51.448;4.742;2022-12-18T04:22:29;8.23;;;4.68;;
54881;SDS011;40775;51.448;4.742;2022-12-18T04:24:56;7.80;;;4.40;;
54881;SDS011;40775;51.448;4.742;2022-12-18T04:27:23;8.60;;;3.97;;
54881;SDS011;40775;51.448;4.742;2022-12-18T04:29:51;7.30;;;3.85;;
54881;SDS011;40775;51.448;4.742;2022-12-18T04:32:18;7.80;;;4.20;;
54881;SDS011;40775;51.448;4.742;2022-12-18T04:34:45;8.90;;;4.32;;
54881;SDS011;40775;51.448;4.742;2022-12-18T04:37:12;18.92;;;11.85;;
54881;SDS011;40775;51.448;4.742;2022-12-18T04:39:40;23.75;;;11.95;;
54881;SDS011;40775;51.448;4.742;2022-12-18T04:42:07;27.55;;;15.60;;
54881;SDS011;40775;51.448;4.742;2022-12-18T04:44:34;23.60;;;13.95;;
54881;SDS011;40775;51.448;4.742;2022-12-18T04:47:02;19.60;;;12.27;;
54881;SDS011;40775;51.448;4.742;2022-12-18T04:49:29;12.63;;;7.33;;
54881;SDS011;40775;51.448;4.742;2022-12-18T04:51:56;10.18;;;6.25;;
54881;SDS011;40775;51.448;4.742;2022-12-18T04:54:23;11.68;;;5.90;;
54881;SDS011;40775;51.448;4.742;2022-12-18T04:56:51;8.13;;;4.15;;
54881;SDS011;40775;51.448;4.742;2022-12-18T04:59:19;8.40;;;4.55;;
54881;SDS011;40775;51.448;4.742;2022-12-18T05:01:47;8.63;;;3.80;;
54881;SDS011;40775;51.448;4.742;2022-12-18T05:04:14;7.78;;;3.88;;
54881;SDS011;40775;51.448;4.742;2022-12-18T05:06:43;7.82;;;3.85;;
54881;SDS011;40775;51.448;4.742;2022-12-18T05:09:10;7.18;;;3.90;;
54881;SDS011;40775;51.448;4.742;2022-12-18T05:11:37;7.35;;;4.00;;
54881;SDS011;40775;51.448;4.742;2022-12-18T05:14:04;8.65;;;4.00;;
54881;SDS011;40775;51.448;4.742;2022-12-18T05:16:31;7.43;;;3.60;;
54881;SDS011;40775;51.448;4.742;2022-12-18T05:18:59;9.13;;;4.43;;
54881;SDS011;40775;51.448;4.742;2022-12-18T05:21:26;9.40;;;4.38;;
54881;SDS011;40775;51.448;4.742;2022-12-18T05:23:53;7.75;;;3.92;;
54881;SDS011;40775;51.448;4.742;2022-12-18T05:26:20;7.82;;;4.00;;
54881;SDS011;40775;51.448;4.742;2022-12-18T05:28:47;9.48;;;4.88;;
54881;SDS011;40775;51.448;4.742;2022-12-18T05:31:15;9.32;;;3.97;;
54881;SDS011;40775;51.448;4.742;2022-12-18T05:33:42;7.25;;;4.05;;
54881;SDS011;40775;51.448;4.742;2022-12-18T05:36:09;8.13;;;4.13;;
54881;SDS011;40775;51.448;4.742;2022-12-18T05:38:38;7.10;;;3.47;;
54881;SDS011;40775;51.448;4.742;2022-12-18T05:41:06;7.47;;;3.33;;
54881;SDS011;40775;51.448;4.742;2022-12-18T05:43:35;6.63;;;2.90;;
54881;SDS011;40775;51.448;4.742;2022-12-18T05:46:05;8.13;;;3.70;;
54881;SDS011;40775;51.448;4.742;2022-12-18T05:48:35;8.27;;;3.58;;
54881;SDS011;40775;51.448;4.742;2022-12-18T05:51:03;7.88;;;3.90;;
54881;SDS011;40775;51.448;4.742;2022-12-18T05:53:33;8.43;;;3.20;;
54881;SDS011;40775;51.448;4.742;2022-12-18T05:56:04;6.75;;;3.50;;
54881;SDS011;40775;51.448;4.742;2022-12-18T05:58:34;6.45;;;2.97;;
54881;SDS011;40775;51.448;4.742;2022-12-18T06:03:42;7.25;;;3.30;;
54881;SDS011;40775;51.448;4.742;2022-12-18T06:06:17;7.70;;;3.22;;
54881;SDS011;40775;51.448;4.742;2022-12-18T06:08:50;7.53;;;3.55;;
54881;SDS011;40775;51.448;4.742;2022-12-18T06:11:21;6.43;;;3.22;;
54881;SDS011;40775;51.448;4.742;2022-12-18T06:13:52;5.93;;;2.92;;
54881;SDS011;40775;51.448;4.742;2022-12-18T06:16:24;7.07;;;3.13;;
54881;SDS011;40775;51.448;4.742;2022-12-18T06:18:53;6.20;;;3.15;;
54881;SDS011;40775;51.448;4.742;2022-12-18T06:21:27;5.72;;;2.92;;
54881;SDS011;40775;51.448;4.742;2022-12-18T06:23:57;7.07;;;3.38;;
54881;SDS011;40775;51.448;4.742;2022-12-18T06:26:24;6.53;;;3.08;;
54881;SDS011;40775;51.448;4.742;2022-12-18T06:28:54;8.30;;;3.70;;
54881;SDS011;40775;51.448;4.742;2022-12-18T06:31:21;7.63;;;3.30;;
54881;SDS011;40775;51.448;4.742;2022-12-18T06:33:49;7.10;;;3.53;;
54881;SDS011;40775;51.448;4.742;2022-12-18T06:36:16;7.68;;;3.42;;
54881;SDS011;40775;51.448;4.742;2022-12-18T06:38:44;11.10;;;3.67;;
54881;SDS011;40775;51.448;4.742;2022-12-18T06:41:14;16.23;;;8.57;;
54881;SDS011;40775;51.448;4.742;2022-12-18T06:43:45;18.40;;;9.73;;
54881;SDS011;40775;51.448;4.742;2022-12-18T06:46:12;20.38;;;13.77;;
54881;SDS011;40775;51.448;4.742;2022-12-18T06:48:40;21.50;;;13.05;;
54881;SDS011;40775;51.448;4.742;2022-12-18T06:51:07;14.57;;;8.90;;
54881;SDS011;40775;51.448;4.742;2022-12-18T06:53:35;6.25;;;3.00;;
54881;SDS011;40775;51.448;4.742;2022-12-18T06:56:03;7.13;;;3.60;;
54881;SDS011;40775;51.448;4.742;2022-12-18T06:58:36;8.30;;;3.97;;
54881;SDS011;40775;51.448;4.742;2022-12-18T07:01:05;7.35;;;4.05;;
54881;SDS011;40775;51.448;4.742;2022-12-18T07:03:36;7.30;;;3.40;;
54881;SDS011;40775;51.448;4.742;2022-12-18T07:06:15;8.00;;;3.53;;
54881;SDS011;40775;51.448;4.742;2022-12-18T07:08:46;6.93;;;3.35;;
54881;SDS011;40775;51.448;4.742;2022-12-18T07:11:14;6.53;;;3.35;;
54881;SDS011;40775;51.448;4.742;2022-12-18T07:13:42;5.65;;;3.28;;
54881;SDS011;40775;51.448;4.742;2022-12-18T07:16:11;8.18;;;3.70;;
54881;SDS011;40775;51.448;4.742;2022-12-18T07:18:51;8.80;;;3.55;;
54881;SDS011;40775;51.448;4.742;2022-12-18T07:21:21;7.03;;;3.33;;
54881;SDS011;40775;51.448;4.742;2022-12-18T07:23:50;6.32;;;3.10;;
54881;SDS011;40775;51.448;4.742;2022-12-18T07:26:18;7.72;;;3.60;;
54881;SDS011;40775;51.448;4.742;2022-12-18T07:28:47;7.27;;;3.00;;
54881;SDS011;40775;51.448;4.742;2022-12-18T07:31:17;7.40;;;3.45;;
54881;SDS011;40775;51.448;4.742;2022-12-18T07:33:47;7.53;;;3.65;;
54881;SDS011;40775;51.448;4.742;2022-12-18T07:36:16;6.00;;;3.20;;
54881;SDS011;40775;51.448;4.742;2022-12-18T07:38:46;6.15;;;3.05;;
54881;SDS011;40775;51.448;4.742;2022-12-18T07:41:15;6.03;;;2.70;;
54881;SDS011;40775;51.448;4.742;2022-12-18T07:43:43;6.40;;;2.97;;
54881;SDS011;40775;51.448;4.742;2022-12-18T07:46:10;5.65;;;2.97;;
54881;SDS011;40775;51.448;4.742;2022-12-18T07:48:43;5.97;;;2.90;;
54881;SDS011;40775;51.448;4.742;2022-12-18T07:51:15;5.85;;;2.63;;
54881;SDS011;40775;51.448;4.742;2022-12-18T07:53:43;6.80;;;3.60;;
54881;SDS011;40775;51.448;4.742;2022-12-18T07:56:11;5.88;;;3.00;;
54881;SDS011;40775;51.448;4.742;2022-12-18T07:58:56;6.65;;;2.83;;
54881;SDS011;40775;51.448;4.742;2022-12-18T08:01:25;5.35;;;2.88;;
54881;SDS011;40775;51.448;4.742;2022-12-18T08:03:53;5.82;;;3.15;;
54881;SDS011;40775;51.448;4.742;2022-12-18T08:06:20;4.85;;;2.35;;
54881;SDS011;40775;51.448;4.742;2022-12-18T08:08:50;5.78;;;2.80;;
54881;SDS011;40775;51.448;4.742;2022-12-18T08:11:22;5.50;;;2.80;;
54881;SDS011;40775;51.448;4.742;2022-12-18T08:13:51;6.75;;;3.10;;
54881;SDS011;40775;51.448;4.742;2022-12-18T08:16:19;6.30;;;2.83;;
54881;SDS011;40775;51.448;4.742;2022-12-18T08:18:48;8.15;;;3.33;;
54881;SDS011;40775;51.448;4.742;2022-12-18T08:21:22;5.82;;;2.78;;
54881;SDS011;40775;51.448;4.742;2022-12-18T08:23:53;6.28;;;2.90;;
54881;SDS011;40775;51.448;4.742;2022-12-18T08:26:24;7.68;;;3.20;;
54881;SDS011;40775;51.448;4.742;2022-12-18T08:28:54;7.05;;;3.17;;
54881;SDS011;40775;51.448;4.742;2022-12-18T08:31:22;6.55;;;2.60;;
54881;SDS011;40775;51.448;4.742;2022-12-18T08:33:50;5.60;;;2.88;;
54881;SDS011;40775;51.448;4.742;2022-12-18T08:36:20;6.63;;;3.25;;
54881;SDS011;40775;51.448;4.742;2022-12-18T08:38:49;4.97;;;2.30;;
54881;SDS011;40775;51.448;4.742;2022-12-18T08:41:17;5.38;;;2.33;;
54881;SDS011;40775;51.448;4.742;2022-12-18T08:43:45;6.18;;;3.05;;
54881;SDS011;40775;51.448;4.742;2022-12-18T08:46:35;12.60;;;7.32;;
54881;SDS011;40775;51.448;4.742;2022-12-18T08:49:06;14.40;;;7.85;;
54881;SDS011;40775;51.448;4.742;2022-12-18T08:51:34;14.40;;;9.60;;
54881;SDS011;40775;51.448;4.742;2022-12-18T08:54:02;12.35;;;8.20;;
54881;SDS011;40775;51.448;4.742;2022-12-18T08:56:31;11.57;;;7.05;;
54881;SDS011;40775;51.448;4.742;2022-12-18T08:59:00;8.32;;;4.30;;
54881;SDS011;40775;51.448;4.742;2022-12-18T09:01:27;6.22;;;2.70;;
54881;SDS011;40775;51.448;4.742;2022-12-18T09:03:54;5.18;;;2.60;;
54881;SDS011;40775;51.448;4.742;2022-12-18T09:06:22;6.55;;;3.35;;
54881;SDS011;40775;51.448;4.742;2022-12-18T09:08:50;7.65;;;3.22;;
54881;SDS011;40775;51.448;4.742;2022-12-18T09:11:21;5.65;;;2.95;;
54881;SDS011;40775;51.448;4.742;2022-12-18T09:13:51;5.63;;;2.70;;
54881;SDS011;40775;51.448;4.742;2022-12-18T09:16:20;5.03;;;2.47;;
54881;SDS011;40775;51.448;4.742;2022-12-18T09:18:55;8.07;;;3.33;;
54881;SDS011;40775;51.448;4.742;2022-12-18T09:21:26;6.07;;;2.65;;
54881;SDS011;40775;51.448;4.742;2022-12-18T09:24:02;6.82;;;3.42;;
54881;SDS011;40775;51.448;4.742;2022-12-18T09:26:34;6.40;;;3.10;;
54881;SDS011;40775;51.448;4.742;2022-12-18T09:29:04;5.10;;;3.13;;
54881;SDS011;40775;51.448;4.742;2022-12-18T09:31:33;6.47;;;3.30;;
54881;SDS011;40775;51.448;4.742;2022-12-18T09:34:01;7.38;;;3.17;;
54881;SDS011;40775;51.448;4.742;2022-12-18T09:36:28;5.22;;;3.10;;
54881;SDS011;40775;51.448;4.742;2022-12-18T09:38:55;5.68;;;2.70;;
54881;SDS011;40775;51.448;4.742;2022-12-18T09:41:42;6.70;;;3.17;;
54881;SDS011;40775;51.448;4.742;2022-12-18T09:46:59;7.47;;;3.05;;
54881;SDS011;40775;51.448;4.742;2022-12-18T09:49:40;7.00;;;3.33;;
54881;SDS011;40775;51.448;4.742;2022-12-18T09:58:13;7.90;;;3.15;;
54881;SDS011;40775;51.448;4.742;2022-12-18T10:01:10;7.65;;;3.67;;
54881;SDS011;40775;51.448;4.742;2022-12-18T10:03:42;7.18;;;3.42;;
54881;SDS011;40775;51.448;4.742;2022-12-18T10:11:55;7.57;;;2.92;;
54881;SDS011;40775;51.448;4.742;2022-12-18T10:17:35;5.00;;;2.63;;
54881;SDS011;40775;51.448;4.742;2022-12-18T10:23:43;6.55;;;3.42;;
54881;SDS011;40775;51.448;4.742;2022-12-18T10:26:23;5.85;;;2.95;;
54881;SDS011;40775;51.448;4.742;2022-12-18T10:28:51;5.70;;;3.25;;
54881;SDS011;40775;51.448;4.742;2022-12-18T10:31:23;6.18;;;3.33;;
54881;SDS011;40775;51.448;4.742;2022-12-18T10:33:53;7.40;;;3.33;;
54881;SDS011;40775;51.448;4.742;2022-12-18T10:36:22;7.97;;;3.90;;
54881;SDS011;40775;51.448;4.742;2022-12-18T10:38:53;6.10;;;3.05;;
54881;SDS011;40775;51.448;4.742;2022-12-18T10:41:26;6.35;;;2.95;;
54881;SDS011;40775;51.448;4.742;2022-12-18T10:44:10;5.53;;;2.95;;
54881;SDS011;40775;51.448;4.742;2022-12-18T10:46:50;5.25;;;2.60;;
54881;SDS011;40775;51.448;4.742;2022-12-18T10:49:28;4.25;;;2.35;;
54881;SDS011;40775;51.448;4.742;2022-12-18T10:52:13;13.02;;;8.07;;
54881;SDS011;40775;51.448;4.742;2022-12-18T10:54:49;11.45;;;7.72;;
54881;SDS011;40775;51.448;4.742;2022-12-18T11:02:55;15.35;;;8.52;;
54881;SDS011;40775;51.448;4.742;2022-12-18T11:05:31;16.35;;;9.00;;
54881;SDS011;40775;51.448;4.742;2022-12-18T11:08:00;15.07;;;9.38;;
54881;SDS011;40775;51.448;4.742;2022-12-18T11:10:31;16.00;;;9.82;;
54881;SDS011;40775;51.448;4.742;2022-12-18T11:13:11;13.43;;;9.18;;
54881;SDS011;40775;51.448;4.742;2022-12-18T11:15:48;14.93;;;9.18;;
54881;SDS011;40775;51.448;4.742;2022-12-18T11:18:26;14.27;;;8.65;;
54881;SDS011;40775;51.448;4.742;2022-12-18T11:21:05;12.30;;;7.70;;
54881;SDS011;40775;51.448;4.742;2022-12-18T11:23:51;13.02;;;7.88;;
54881;SDS011;40775;51.448;4.742;2022-12-18T11:26:20;14.95;;;7.97;;
54881;SDS011;40775;51.448;4.742;2022-12-18T11:29:09;12.65;;;7.28;;
54881;SDS011;40775;51.448;4.742;2022-12-18T11:31:45;13.40;;;8.00;;
54881;SDS011;40775;51.448;4.742;2022-12-18T11:34:19;13.30;;;8.30;;
54881;SDS011;40775;51.448;4.742;2022-12-18T11:36:57;13.80;;;8.47;;
54881;SDS011;40775;51.448;4.742;2022-12-18T11:40:03;14.10;;;8.05;;
54881;SDS011;40775;51.448;4.742;2022-12-18T11:42:27;12.13;;;7.28;;
54881;SDS011;40775;51.448;4.742;2022-12-18T11:47:44;12.82;;;7.97;;
54881;SDS011;40775;51.448;4.742;2022-12-18T11:50:20;15.88;;;8.73;;
54881;SDS011;40775;51.448;4.742;2022-12-18T11:53:11;13.83;;;7.90;;
54881;SDS011;40775;51.448;4.742;2022-12-18T11:58:18;14.70;;;8.48;;
54881;SDS011;40775;51.448;4.742;2022-12-18T12:04:30;13.52;;;8.23;;
54881;SDS011;40775;51.448;4.742;2022-12-18T12:10:00;14.07;;;7.73;;
54881;SDS011;40775;51.448;4.742;2022-12-18T12:18:15;13.40;;;7.70;;
54881;SDS011;40775;51.448;4.742;2022-12-18T12:24:11;11.55;;;6.97;;
54881;SDS011;40775;51.448;4.742;2022-12-18T12:27:12;14.20;;;7.85;;
54881;SDS011;40775;51.448;4.742;2022-12-18T12:30:21;13.32;;;7.95;;
54881;SDS011;40775;51.448;4.742;2022-12-18T12:39:38;12.52;;;8.27;;
54881;SDS011;40775;51.448;4.742;2022-12-18T12:45:26;14.57;;;8.95;;
54881;SDS011;40775;51.448;4.742;2022-12-18T12:48:05;16.02;;;8.85;;
54881;SDS011;40775;51.448;4.742;2022-12-18T12:50:42;16.58;;;8.38;;
54881;SDS011;40775;51.448;4.742;2022-12-18T12:53:17;15.38;;;8.38;;
54881;SDS011;40775;51.448;4.742;2022-12-18T12:55:56;14.23;;;7.90;;
54881;SDS011;40775;51.448;4.742;2022-12-18T12:58:27;15.53;;;8.57;;
54881;SDS011;40775;51.448;4.742;2022-12-18T13:01:40;10.45;;;5.25;;
54881;SDS011;40775;51.448;4.742;2022-12-18T13:07:12;11.43;;;5.60;;
54881;SDS011;40775;51.448;4.742;2022-12-18T13:12:58;9.15;;;4.72;;
54881;SDS011;40775;51.448;4.742;2022-12-18T13:15:49;11.00;;;5.95;;
54881;SDS011;40775;51.448;4.742;2022-12-18T13:18:34;11.35;;;5.13;;
54881;SDS011;40775;51.448;4.742;2022-12-18T13:21:04;11.80;;;4.45;;
54881;SDS011;40775;51.448;4.742;2022-12-18T13:23:54;11.27;;;5.03;;
54881;SDS011;40775;51.448;4.742;2022-12-18T13:28:54;11.15;;;4.65;;
54881;SDS011;40775;51.448;4.742;2022-12-18T13:36:53;10.85;;;4.63;;
54881;SDS011;40775;51.448;4.742;2022-12-18T13:39:34;14.07;;;6.18;;
54881;SDS011;40775;51.448;4.742;2022-12-18T13:44:33;8.82;;;3.72;;
54881;SDS011;40775;51.448;4.742;2022-12-18T13:53:02;8.02;;;3.63;;
54881;SDS011;40775;51.448;4.742;2022-12-18T13:55:31;9.30;;;3.58;;
54881;SDS011;40775;51.448;4.742;2022-12-18T13:58:05;9.30;;;3.10;;
54881;SDS011;40775;51.448;4.742;2022-12-18T14:00:32;8.27;;;2.80;;
54881;SDS011;40775;51.448;4.742;2022-12-18T14:03:00;4.70;;;2.05;;
54881;SDS011;40775;51.448;4.742;2022-12-18T14:05:29;4.60;;;2.13;;
54881;SDS011;40775;51.448;4.742;2022-12-18T14:08:06;5.93;;;2.77;;
54881;SDS011;40775;51.448;4.742;2022-12-18T14:10:44;6.57;;;2.67;;
54881;SDS011;40775;51.448;4.742;2022-12-18T14:13:18;4.70;;;2.00;;
54881;SDS011;40775;51.448;4.742;2022-12-18T14:15:58;2.80;;;1.58;;
54881;SDS011;40775;51.448;4.742;2022-12-18T14:21:45;12.25;;;6.28;;
54881;SDS011;40775;51.448;4.742;2022-12-18T14:24:17;2.00;;;1.20;;
54881;SDS011;40775;51.448;4.742;2022-12-18T14:26:48;4.78;;;2.17;;
54881;SDS011;40775;51.448;4.742;2022-12-18T14:34:42;5.03;;;2.70;;
54881;SDS011;40775;51.448;4.742;2022-12-18T14:37:14;1.57;;;1.03;;
54881;SDS011;40775;51.448;4.742;2022-12-18T14:39:56;1.73;;;1.50;;
54881;SDS011;40775;51.448;4.742;2022-12-18T14:42:35;3.65;;;1.83;;
54881;SDS011;40775;51.448;4.742;2022-12-18T14:51:17;2.40;;;1.57;;
54881;SDS011;40775;51.448;4.742;2022-12-18T14:54:05;3.27;;;1.77;;
54881;SDS011;40775;51.448;4.742;2022-12-18T14:56:43;5.38;;;2.88;;
54881;SDS011;40775;51.448;4.742;2022-12-18T14:59:14;2.92;;;1.70;;
54881;SDS011;40775;51.448;4.742;2022-12-18T15:03:19;3.57;;;1.40;;
54881;SDS011;40775;51.448;4.742;2022-12-18T15:05:48;4.47;;;2.35;;
54881;SDS011;40775;51.448;4.742;2022-12-18T15:08:29;2.50;;;1.92;;
54881;SDS011;40775;51.448;4.742;2022-12-18T15:11:23;3.15;;;1.55;;
54881;SDS011;40775;51.448;4.742;2022-12-18T15:13:54;3.60;;;2.03;;
54881;SDS011;40775;51.448;4.742;2022-12-18T15:16:24;4.05;;;1.85;;
54881;SDS011;40775;51.448;4.742;2022-12-18T15:18:51;3.65;;;1.95;;
54881;SDS011;40775;51.448;4.742;2022-12-18T15:21:20;4.95;;;1.52;;
54881;SDS011;40775;51.448;4.742;2022-12-18T15:23:48;2.93;;;1.40;;
54881;SDS011;40775;51.448;4.742;2022-12-18T15:26:18;3.20;;;1.63;;
54881;SDS011;40775;51.448;4.742;2022-12-18T15:28:54;3.78;;;1.60;;
54881;SDS011;40775;51.448;4.742;2022-12-18T15:31:28;5.13;;;1.58;;
54881;SDS011;40775;51.448;4.742;2022-12-18T15:36:39;3.85;;;1.88;;
54881;SDS011;40775;51.448;4.742;2022-12-18T15:39:09;4.37;;;1.77;;
54881;SDS011;40775;51.448;4.742;2022-12-18T15:41:39;3.67;;;1.70;;
54881;SDS011;40775;51.448;4.742;2022-12-18T15:44:22;3.80;;;2.13;;
54881;SDS011;40775;51.448;4.742;2022-12-18T15:46:51;9.48;;;3.17;;
54881;SDS011;40775;51.448;4.742;2022-12-18T15:49:18;7.38;;;3.47;;
54881;SDS011;40775;51.448;4.742;2022-12-18T15:51:46;8.70;;;4.00;;
54881;SDS011;40775;51.448;4.742;2022-12-18T15:54:22;9.43;;;4.50;;
54881;SDS011;40775;51.448;4.742;2022-12-18T15:57:11;9.17;;;4.23;;
54881;SDS011;40775;51.448;4.742;2022-12-18T15:59:52;7.20;;;3.92;;
54881;SDS011;40775;51.448;4.742;2022-12-18T16:02:24;7.90;;;3.47;;
54881;SDS011;40775;51.448;4.742;2022-12-18T16:04:54;6.75;;;2.70;;
54881;SDS011;40775;51.448;4.742;2022-12-18T16:07:23;6.22;;;2.92;;
54881;SDS011;40775;51.448;4.742;2022-12-18T16:09:55;7.97;;;3.38;;
54881;SDS011;40775;51.448;4.742;2022-12-18T16:12:26;7.47;;;3.20;;
54881;SDS011;40775;51.448;4.742;2022-12-18T16:14:54;7.53;;;3.20;;
54881;SDS011;40775;51.448;4.742;2022-12-18T16:17:21;5.70;;;2.92;;
54881;SDS011;40775;51.448;4.742;2022-12-18T16:19:49;7.63;;;3.67;;
54881;SDS011;40775;51.448;4.742;2022-12-18T16:22:21;7.93;;;3.30;;
54881;SDS011;40775;51.448;4.742;2022-12-18T16:24:54;6.80;;;2.95;;
54881;SDS011;40775;51.448;4.742;2022-12-18T16:27:23;5.47;;;3.13;;
54881;SDS011;40775;51.448;4.742;2022-12-18T16:29:52;8.15;;;3.35;;
54881;SDS011;40775;51.448;4.742;2022-12-18T16:32:20;8.77;;;4.28;;
54881;SDS011;40775;51.448;4.742;2022-12-18T16:34:50;6.60;;;3.50;;
54881;SDS011;40775;51.448;4.742;2022-12-18T16:37:18;9.30;;;4.03;;
54881;SDS011;40775;51.448;4.742;2022-12-18T16:39:46;10.03;;;4.50;;
54881;SDS011;40775;51.448;4.742;2022-12-18T16:42:15;8.88;;;4.55;;
54881;SDS011;40775;51.448;4.742;2022-12-18T16:44:46;8.80;;;3.97;;
54881;SDS011;40775;51.448;4.742;2022-12-18T16:49:14;8.02;;;4.32;;
54881;SDS011;40775;51.448;4.742;2022-12-18T16:51:42;8.82;;;4.88;;
54881;SDS011;40775;51.448;4.742;2022-12-18T16:54:10;9.80;;;4.63;;
54881;SDS011;40775;51.448;4.742;2022-12-18T16:56:44;19.25;;;6.10;;
54881;SDS011;40775;51.448;4.742;2022-12-18T16:59:12;7.28;;;3.88;;
54881;SDS011;40775;51.448;4.742;2022-12-18T17:01:38;7.40;;;3.83;;
54881;SDS011;40775;51.448;4.742;2022-12-18T17:04:07;8.02;;;4.22;;
54881;SDS011;40775;51.448;4.742;2022-12-18T17:06:37;6.43;;;3.80;;
54881;SDS011;40775;51.448;4.742;2022-12-18T17:09:06;7.20;;;4.18;;
54881;SDS011;40775;51.448;4.742;2022-12-18T17:11:34;9.60;;;4.43;;
54881;SDS011;40775;51.448;4.742;2022-12-18T17:14:08;8.98;;;4.97;;
54881;SDS011;40775;51.448;4.742;2022-12-18T17:16:37;6.95;;;4.47;;
54881;SDS011;40775;51.448;4.742;2022-12-18T17:19:06;7.90;;;5.18;;
54881;SDS011;40775;51.448;4.742;2022-12-18T17:21:42;7.68;;;5.15;;
54881;SDS011;40775;51.448;4.742;2022-12-18T17:24:10;8.25;;;5.15;;
54881;SDS011;40775;51.448;4.742;2022-12-18T17:26:37;7.67;;;5.23;;
54881;SDS011;40775;51.448;4.742;2022-12-18T17:29:04;8.02;;;5.15;;